Terminal Aerodrome Forecast
Issued by NWS Tuscon, AZ

Home | Current Version | Previous Version | Text Only | Print | Product List | Glossary On
Versions: 1 2 3 4 5 6 7 8 9 10 11 12 13 14 15 16 17
000
FTUS45 KTWC 222300
TAFDUG
TAF
KDUG 222327Z 2300/2324 28009KT P6SM VCSH SCT070 BKN130
      TEMPO 2300/2301 VRB15G25KT -TSRA BKN070CB
     FM230200 36005KT P6SM SCT070
     FM232000 27010KT P6SM SCT080 SCT250=

USA.gov is the U.S. government's official web portal to all federal, state and local government web resources and services.